sensor_id;sensor_type;location;lat;lon;timestamp;temperature;humidity
34698;DHT22;61391;50.922;6.928;2023-06-10T00:00:42;22.70;99.90
34698;DHT22;61391;50.922;6.928;2023-06-10T00:03:08;22.60;99.90
34698;DHT22;61391;50.922;6.928;2023-06-10T00:05:34;22.50;99.90
34698;DHT22;61391;50.922;6.928;2023-06-10T00:08:01;22.40;99.90
34698;DHT22;61391;50.922;6.928;2023-06-10T00:10:38;22.30;99.90
34698;DHT22;61391;50.922;6.928;2023-06-10T00:13:05;22.30;99.90
34698;DHT22;61391;50.922;6.928;2023-06-10T00:15:33;22.30;99.90
34698;DHT22;61391;50.922;6.928;2023-06-10T00:17:58;22.20;99.90
34698;DHT22;61391;50.922;6.928;2023-06-10T00:20:26;22.30;99.90
34698;DHT22;61391;50.922;6.928;2023-06-10T00:22:52;22.30;99.90
34698;DHT22;61391;50.922;6.928;2023-06-10T00:25:18;22.20;99.90
34698;DHT22;61391;50.922;6.928;2023-06-10T00:27:44;22.20;99.90
34698;DHT22;61391;50.922;6.928;2023-06-10T00:30:10;22.20;99.90
34698;DHT22;61391;50.922;6.928;2023-06-10T00:32:36;22.30;99.90
34698;DHT22;61391;50.922;6.928;2023-06-10T00:35:05;22.20;99.90
34698;DHT22;61391;50.922;6.928;2023-06-10T00:37:33;22.20;99.90
34698;DHT22;61391;50.922;6.928;2023-06-10T00:40:03;22.20;99.90
34698;DHT22;61391;50.922;6.928;2023-06-10T00:42:29;22.10;99.90
34698;DHT22;61391;50.922;6.928;2023-06-10T00:44:56;22.10;99.90
34698;DHT22;61391;50.922;6.928;2023-06-10T00:47:22;22.20;99.90
34698;DHT22;61391;50.922;6.928;2023-06-10T00:49:49;22.00;99.90
34698;DHT22;61391;50.922;6.928;2023-06-10T00:52:16;22.10;99.90
34698;DHT22;61391;50.922;6.928;2023-06-10T00:54:44;22.10;99.90
34698;DHT22;61391;50.922;6.928;2023-06-10T00:57:10;22.00;99.90
34698;DHT22;61391;50.922;6.928;2023-06-10T00:59:36;22.10;99.90
34698;DHT22;61391;50.922;6.928;2023-06-10T01:02:03;22.00;99.90
34698;DHT22;61391;50.922;6.928;2023-06-10T01:04:29;21.90;99.90
34698;DHT22;61391;50.922;6.928;2023-06-10T01:07:04;21.90;99.90
34698;DHT22;61391;50.922;6.928;2023-06-10T01:09:49;21.80;99.90
34698;DHT22;61391;50.922;6.928;2023-06-10T01:12:30;21.70;99.90
34698;DHT22;61391;50.922;6.928;2023-06-10T01:14:59;21.60;99.90
34698;DHT22;61391;50.922;6.928;2023-06-10T01:17:26;21.60;99.90
34698;DHT22;61391;50.922;6.928;2023-06-10T01:19:56;21.60;99.90
34698;DHT22;61391;50.922;6.928;2023-06-10T01:22:26;21.50;99.90
34698;DHT22;61391;50.922;6.928;2023-06-10T01:24:58;21.50;99.90
34698;DHT22;61391;50.922;6.928;2023-06-10T01:27:27;21.30;99.90
34698;DHT22;61391;50.922;6.928;2023-06-10T01:30:00;21.30;99.90
34698;DHT22;61391;50.922;6.928;2023-06-10T01:32:34;21.30;99.90
34698;DHT22;61391;50.922;6.928;2023-06-10T01:35:03;21.40;99.90
34698;DHT22;61391;50.922;6.928;2023-06-10T01:37:31;21.40;99.90
34698;DHT22;61391;50.922;6.928;2023-06-10T01:40:00;21.20;99.90
34698;DHT22;61391;50.922;6.928;2023-06-10T01:42:26;21.20;99.90
34698;DHT22;61391;50.922;6.928;2023-06-10T01:44:52;21.20;99.90
34698;DHT22;61391;50.922;6.928;2023-06-10T01:47:18;21.20;99.90
34698;DHT22;61391;50.922;6.928;2023-06-10T01:49:56;21.20;99.90
34698;DHT22;61391;50.922;6.928;2023-06-10T01:52:21;21.10;99.90
34698;DHT22;61391;50.922;6.928;2023-06-10T01:54:47;21.10;99.90
34698;DHT22;61391;50.922;6.928;2023-06-10T01:57:12;21.00;99.90
34698;DHT22;61391;50.922;6.928;2023-06-10T01:59:38;21.00;99.90
34698;DHT22;61391;50.922;6.928;2023-06-10T02:02:05;21.00;99.90
34698;DHT22;61391;50.922;6.928;2023-06-10T02:04:30;20.90;99.90
34698;DHT22;61391;50.922;6.928;2023-06-10T02:06:56;20.90;99.90
34698;DHT22;61391;50.922;6.928;2023-06-10T02:09:22;20.90;99.90
34698;DHT22;61391;50.922;6.928;2023-06-10T02:11:48;20.90;99.90
34698;DHT22;61391;50.922;6.928;2023-06-10T02:14:14;20.90;99.90
34698;DHT22;61391;50.922;6.928;2023-06-10T02:16:40;20.90;99.90
34698;DHT22;61391;50.922;6.928;2023-06-10T02:19:06;20.90;99.90
34698;DHT22;61391;50.922;6.928;2023-06-10T02:21:32;20.70;99.90
34698;DHT22;61391;50.922;6.928;2023-06-10T02:24:00;20.80;99.90
34698;DHT22;61391;50.922;6.928;2023-06-10T02:26:26;20.60;99.90
34698;DHT22;61391;50.922;6.928;2023-06-10T02:28:52;20.60;99.90
34698;DHT22;61391;50.922;6.928;2023-06-10T02:31:17;20.70;99.90
34698;DHT22;61391;50.922;6.928;2023-06-10T02:33:44;20.70;99.90
34698;DHT22;61391;50.922;6.928;2023-06-10T02:36:09;20.80;99.90
34698;DHT22;61391;50.922;6.928;2023-06-10T02:38:39;20.90;99.90
34698;DHT22;61391;50.922;6.928;2023-06-10T02:41:05;20.70;99.90
34698;DHT22;61391;50.922;6.928;2023-06-10T02:43:30;20.70;99.90
34698;DHT22;61391;50.922;6.928;2023-06-10T02:45:56;20.70;99.90
34698;DHT22;61391;50.922;6.928;2023-06-10T02:48:23;20.70;99.90
34698;DHT22;61391;50.922;6.928;2023-06-10T02:50:49;20.70;99.90
34698;DHT22;61391;50.922;6.928;2023-06-10T02:53:15;20.70;99.90
34698;DHT22;61391;50.922;6.928;2023-06-10T02:55:40;20.60;99.90
34698;DHT22;61391;50.922;6.928;2023-06-10T02:58:06;20.50;99.90
34698;DHT22;61391;50.922;6.928;2023-06-10T03:00:32;20.60;99.90
34698;DHT22;61391;50.922;6.928;2023-06-10T03:02:58;20.50;99.90
34698;DHT22;61391;50.922;6.928;2023-06-10T03:05:28;20.60;99.90
34698;DHT22;61391;50.922;6.928;2023-06-10T03:07:54;20.40;99.90
34698;DHT22;61391;50.922;6.928;2023-06-10T03:10:20;20.40;99.90
34698;DHT22;61391;50.922;6.928;2023-06-10T03:12:45;20.30;99.90
34698;DHT22;61391;50.922;6.928;2023-06-10T03:15:21;20.30;99.90
34698;DHT22;61391;50.922;6.928;2023-06-10T03:17:47;20.40;99.90
34698;DHT22;61391;50.922;6.928;2023-06-10T03:20:12;20.40;99.90
34698;DHT22;61391;50.922;6.928;2023-06-10T03:22:41;20.50;99.90
34698;DHT22;61391;50.922;6.928;2023-06-10T03:25:06;20.40;99.90
34698;DHT22;61391;50.922;6.928;2023-06-10T03:27:40;20.40;99.90
34698;DHT22;61391;50.922;6.928;2023-06-10T03:30:06;20.40;99.90
34698;DHT22;61391;50.922;6.928;2023-06-10T03:32:32;20.40;99.90
34698;DHT22;61391;50.922;6.928;2023-06-10T03:34:57;20.40;99.90
34698;DHT22;61391;50.922;6.928;2023-06-10T03:37:24;20.50;99.90
34698;DHT22;61391;50.922;6.928;2023-06-10T03:39:50;20.30;99.90
34698;DHT22;61391;50.922;6.928;2023-06-10T03:42:16;20.40;99.90
34698;DHT22;61391;50.922;6.928;2023-06-10T03:44:41;20.40;99.90
34698;DHT22;61391;50.922;6.928;2023-06-10T03:47:07;20.30;99.90
34698;DHT22;61391;50.922;6.928;2023-06-10T03:49:33;20.30;99.90
34698;DHT22;61391;50.922;6.928;2023-06-10T03:51:58;20.30;99.90
34698;DHT22;61391;50.922;6.928;2023-06-10T03:54:24;20.40;99.90
34698;DHT22;61391;50.922;6.928;2023-06-10T03:56:50;20.30;99.90
34698;DHT22;61391;50.922;6.928;2023-06-10T03:59:16;20.40;99.90
34698;DHT22;61391;50.922;6.928;2023-06-10T04:01:42;20.50;99.90
34698;DHT22;61391;50.922;6.928;2023-06-10T04:04:09;20.50;99.90
34698;DHT22;61391;50.922;6.928;2023-06-10T04:06:34;20.30;99.90
34698;DHT22;61391;50.922;6.928;2023-06-10T04:09:00;20.50;99.90
34698;DHT22;61391;50.922;6.928;2023-06-10T04:11:25;20.40;99.90
34698;DHT22;61391;50.922;6.928;2023-06-10T04:13:51;20.40;99.90
34698;DHT22;61391;50.922;6.928;2023-06-10T04:16:17;20.50;99.90
34698;DHT22;61391;50.922;6.928;2023-06-10T04:18:42;20.40;99.90
34698;DHT22;61391;50.922;6.928;2023-06-10T04:21:08;20.40;99.90
34698;DHT22;61391;50.922;6.928;2023-06-10T04:23:35;20.40;99.90
34698;DHT22;61391;50.922;6.928;2023-06-10T04:26:02;20.50;99.90
34698;DHT22;61391;50.922;6.928;2023-06-10T04:28:27;20.50;99.90
34698;DHT22;61391;50.922;6.928;2023-06-10T04:30:53;20.50;99.90
34698;DHT22;61391;50.922;6.928;2023-06-10T04:33:19;20.50;99.90
34698;DHT22;61391;50.922;6.928;2023-06-10T04:35:44;20.40;99.90
34698;DHT22;61391;50.922;6.928;2023-06-10T04:38:13;20.50;99.90
34698;DHT22;61391;50.922;6.928;2023-06-10T04:40:39;20.40;99.90
34698;DHT22;61391;50.922;6.928;2023-06-10T04:43:05;20.50;99.90
34698;DHT22;61391;50.922;6.928;2023-06-10T04:45:31;20.50;99.90
34698;DHT22;61391;50.922;6.928;2023-06-10T04:47:56;20.60;99.90
34698;DHT22;61391;50.922;6.928;2023-06-10T04:50:24;20.50;99.90
34698;DHT22;61391;50.922;6.928;2023-06-10T04:52:50;20.30;99.90
34698;DHT22;61391;50.922;6.928;2023-06-10T04:55:16;20.40;99.90
34698;DHT22;61391;50.922;6.928;2023-06-10T04:57:41;20.50;99.90
34698;DHT22;61391;50.922;6.928;2023-06-10T05:00:07;20.70;99.90
34698;DHT22;61391;50.922;6.928;2023-06-10T05:02:34;20.80;99.90
34698;DHT22;61391;50.922;6.928;2023-06-10T05:04:59;20.80;99.90
34698;DHT22;61391;50.922;6.928;2023-06-10T05:07:25;20.90;99.90
34698;DHT22;61391;50.922;6.928;2023-06-10T05:09:51;21.00;99.90
34698;DHT22;61391;50.922;6.928;2023-06-10T05:12:16;21.20;99.90
34698;DHT22;61391;50.922;6.928;2023-06-10T05:14:42;21.10;99.90
34698;DHT22;61391;50.922;6.928;2023-06-10T05:17:08;21.10;99.90
34698;DHT22;61391;50.922;6.928;2023-06-10T05:19:33;20.80;99.90
34698;DHT22;61391;50.922;6.928;2023-06-10T05:22:01;20.90;99.90
34698;DHT22;61391;50.922;6.928;2023-06-10T05:24:28;21.10;99.90
34698;DHT22;61391;50.922;6.928;2023-06-10T05:26:53;21.30;99.90
34698;DHT22;61391;50.922;6.928;2023-06-10T05:29:19;21.10;99.90
34698;DHT22;61391;50.922;6.928;2023-06-10T05:31:46;21.10;99.90
34698;DHT22;61391;50.922;6.928;2023-06-10T05:34:12;21.20;99.90
34698;DHT22;61391;50.922;6.928;2023-06-10T05:36:37;21.00;99.90
34698;DHT22;61391;50.922;6.928;2023-06-10T05:39:03;20.80;99.90
34698;DHT22;61391;50.922;6.928;2023-06-10T05:41:28;20.90;99.90
34698;DHT22;61391;50.922;6.928;2023-06-10T05:43:55;20.80;99.90
34698;DHT22;61391;50.922;6.928;2023-06-10T05:46:21;20.80;99.90
34698;DHT22;61391;50.922;6.928;2023-06-10T05:48:47;20.60;99.90
34698;DHT22;61391;50.922;6.928;2023-06-10T05:51:12;20.70;99.90
34698;DHT22;61391;50.922;6.928;2023-06-10T05:53:38;20.80;99.90
34698;DHT22;61391;50.922;6.928;2023-06-10T05:56:04;21.00;99.90
34698;DHT22;61391;50.922;6.928;2023-06-10T05:58:29;21.20;99.90
34698;DHT22;61391;50.922;6.928;2023-06-10T06:00:55;21.60;99.90
34698;DHT22;61391;50.922;6.928;2023-06-10T06:03:21;21.90;99.90
34698;DHT22;61391;50.922;6.928;2023-06-10T06:05:46;22.00;99.90
34698;DHT22;61391;50.922;6.928;2023-06-10T06:08:12;21.60;99.90
34698;DHT22;61391;50.922;6.928;2023-06-10T06:10:46;21.50;99.90
34698;DHT22;61391;50.922;6.928;2023-06-10T06:13:13;21.50;99.90
34698;DHT22;61391;50.922;6.928;2023-06-10T06:15:38;21.60;99.90
34698;DHT22;61391;50.922;6.928;2023-06-10T06:18:04;21.70;99.90
34698;DHT22;61391;50.922;6.928;2023-06-10T06:20:31;21.80;99.90
34698;DHT22;61391;50.922;6.928;2023-06-10T06:22:57;22.10;99.90
34698;DHT22;61391;50.922;6.928;2023-06-10T06:25:30;22.60;99.90
34698;DHT22;61391;50.922;6.928;2023-06-10T06:27:57;22.80;99.90
34698;DHT22;61391;50.922;6.928;2023-06-10T06:30:23;23.00;99.90
34698;DHT22;61391;50.922;6.928;2023-06-10T06:32:48;22.90;99.90
34698;DHT22;61391;50.922;6.928;2023-06-10T06:35:14;22.70;99.90
34698;DHT22;61391;50.922;6.928;2023-06-10T06:37:39;23.00;99.90
34698;DHT22;61391;50.922;6.928;2023-06-10T06:40:06;23.10;99.90
34698;DHT22;61391;50.922;6.928;2023-06-10T06:42:31;23.30;99.90
34698;DHT22;61391;50.922;6.928;2023-06-10T06:44:57;23.20;99.90
34698;DHT22;61391;50.922;6.928;2023-06-10T06:47:23;23.50;99.90
34698;DHT22;61391;50.922;6.928;2023-06-10T06:49:49;23.90;99.90
34698;DHT22;61391;50.922;6.928;2023-06-10T06:52:15;23.90;99.90
34698;DHT22;61391;50.922;6.928;2023-06-10T06:54:41;24.10;99.90
34698;DHT22;61391;50.922;6.928;2023-06-10T06:57:07;23.80;99.90
34698;DHT22;61391;50.922;6.928;2023-06-10T06:59:33;24.20;99.90
34698;DHT22;61391;50.922;6.928;2023-06-10T07:02:02;24.30;99.90
34698;DHT22;61391;50.922;6.928;2023-06-10T07:04:28;24.30;99.90
34698;DHT22;61391;50.922;6.928;2023-06-10T07:06:54;24.70;99.90
34698;DHT22;61391;50.922;6.928;2023-06-10T07:09:20;25.20;99.90
34698;DHT22;61391;50.922;6.928;2023-06-10T07:11:45;25.80;99.90
34698;DHT22;61391;50.922;6.928;2023-06-10T07:14:11;25.30;99.90
34698;DHT22;61391;50.922;6.928;2023-06-10T07:16:36;25.60;99.90
34698;DHT22;61391;50.922;6.928;2023-06-10T07:19:02;26.10;99.90
34698;DHT22;61391;50.922;6.928;2023-06-10T07:21:33;26.60;99.90
34698;DHT22;61391;50.922;6.928;2023-06-10T07:23:59;27.40;99.90
34698;DHT22;61391;50.922;6.928;2023-06-10T07:26:25;28.20;99.90
34698;DHT22;61391;50.922;6.928;2023-06-10T07:28:52;28.20;98.50
34698;DHT22;61391;50.922;6.928;2023-06-10T07:31:17;28.20;98.50
34698;DHT22;61391;50.922;6.928;2023-06-10T07:33:43;29.00;96.90
34698;DHT22;61391;50.922;6.928;2023-06-10T07:36:09;29.00;96.20
34698;DHT22;61391;50.922;6.928;2023-06-10T07:38:35;29.60;94.90
34698;DHT22;61391;50.922;6.928;2023-06-10T07:41:01;29.20;94.60
34698;DHT22;61391;50.922;6.928;2023-06-10T07:43:27;28.80;94.70
34698;DHT22;61391;50.922;6.928;2023-06-10T07:45:52;29.60;94.70
34698;DHT22;61391;50.922;6.928;2023-06-10T07:48:18;30.60;91.80
34698;DHT22;61391;50.922;6.928;2023-06-10T07:50:43;29.80;92.40
34698;DHT22;61391;50.922;6.928;2023-06-10T07:53:09;30.80;92.00
34698;DHT22;61391;50.922;6.928;2023-06-10T07:55:36;31.20;91.40
34698;DHT22;61391;50.922;6.928;2023-06-10T07:58:01;32.40;87.60
34698;DHT22;61391;50.922;6.928;2023-06-10T08:00:28;32.60;85.80
34698;DHT22;61391;50.922;6.928;2023-06-10T08:02:54;31.70;84.10
34698;DHT22;61391;50.922;6.928;2023-06-10T08:05:19;32.40;83.40
34698;DHT22;61391;50.922;6.928;2023-06-10T08:07:46;33.20;81.50
34698;DHT22;61391;50.922;6.928;2023-06-10T08:10:11;34.70;78.00
34698;DHT22;61391;50.922;6.928;2023-06-10T08:12:37;32.20;80.30
34698;DHT22;61391;50.922;6.928;2023-06-10T08:15:03;33.90;78.80
34698;DHT22;61391;50.922;6.928;2023-06-10T08:17:30;34.10;76.80
34698;DHT22;61391;50.922;6.928;2023-06-10T08:20:06;33.40;77.70
34698;DHT22;61391;50.922;6.928;2023-06-10T08:22:32;33.30;78.60
34698;DHT22;61391;50.922;6.928;2023-06-10T08:24:57;35.30;75.70
34698;DHT22;61391;50.922;6.928;2023-06-10T08:27:23;35.90;72.80
34698;DHT22;61391;50.922;6.928;2023-06-10T08:29:48;36.60;69.20
34698;DHT22;61391;50.922;6.928;2023-06-10T08:32:14;37.20;67.90
34698;DHT22;61391;50.922;6.928;2023-06-10T08:34:40;37.60;66.20
34698;DHT22;61391;50.922;6.928;2023-06-10T08:37:07;37.20;65.90
34698;DHT22;61391;50.922;6.928;2023-06-10T08:39:32;36.80;65.60
34698;DHT22;61391;50.922;6.928;2023-06-10T08:42:21;36.00;67.40
34698;DHT22;61391;50.922;6.928;2023-06-10T08:44:50;37.30;66.80
34698;DHT22;61391;50.922;6.928;2023-06-10T08:47:18;36.70;65.80
34698;DHT22;61391;50.922;6.928;2023-06-10T08:49:46;36.60;64.60
34698;DHT22;61391;50.922;6.928;2023-06-10T08:52:17;37.70;64.40
34698;DHT22;61391;50.922;6.928;2023-06-10T08:54:54;37.50;63.90
34698;DHT22;61391;50.922;6.928;2023-06-10T08:57:22;38.90;64.10
34698;DHT22;61391;50.922;6.928;2023-06-10T08:59:49;40.00;62.10
34698;DHT22;61391;50.922;6.928;2023-06-10T09:02:15;40.10;60.40
34698;DHT22;61391;50.922;6.928;2023-06-10T09:04:44;40.30;60.10
34698;DHT22;61391;50.922;6.928;2023-06-10T09:07:11;40.00;58.60
34698;DHT22;61391;50.922;6.928;2023-06-10T09:09:37;40.70;58.60
34698;DHT22;61391;50.922;6.928;2023-06-10T09:12:04;42.00;57.30
34698;DHT22;61391;50.922;6.928;2023-06-10T09:14:30;41.90;56.70
34698;DHT22;61391;50.922;6.928;2023-06-10T09:16:55;39.00;57.40
34698;DHT22;61391;50.922;6.928;2023-06-10T09:19:25;39.20;59.70
34698;DHT22;61391;50.922;6.928;2023-06-10T09:21:52;39.50;57.80
34698;DHT22;61391;50.922;6.928;2023-06-10T09:24:18;40.60;56.80
34698;DHT22;61391;50.922;6.928;2023-06-10T09:26:45;41.30;56.50
34698;DHT22;61391;50.922;6.928;2023-06-10T09:29:11;40.40;56.90
34698;DHT22;61391;50.922;6.928;2023-06-10T09:31:38;39.90;57.00
34698;DHT22;61391;50.922;6.928;2023-06-10T09:34:13;37.70;60.30
34698;DHT22;61391;50.922;6.928;2023-06-10T09:36:39;37.40;59.50
34698;DHT22;61391;50.922;6.928;2023-06-10T09:39:13;37.90;59.00
34698;DHT22;61391;50.922;6.928;2023-06-10T09:41:40;38.40;59.30
34698;DHT22;61391;50.922;6.928;2023-06-10T09:44:17;36.90;59.40
34698;DHT22;61391;50.922;6.928;2023-06-10T09:46:48;36.80;59.60
34698;DHT22;61391;50.922;6.928;2023-06-10T09:49:14;37.00;61.20
34698;DHT22;61391;50.922;6.928;2023-06-10T09:51:54;37.00;60.20
34698;DHT22;61391;50.922;6.928;2023-06-10T09:54:21;38.20;58.80
34698;DHT22;61391;50.922;6.928;2023-06-10T09:56:51;37.50;59.00
34698;DHT22;61391;50.922;6.928;2023-06-10T09:59:30;38.50;59.00
34698;DHT22;61391;50.922;6.928;2023-06-10T10:02:00;37.50;58.80
34698;DHT22;61391;50.922;6.928;2023-06-10T10:04:26;38.80;59.00
34698;DHT22;61391;50.922;6.928;2023-06-10T10:06:52;39.70;57.80
34698;DHT22;61391;50.922;6.928;2023-06-10T10:09:19;40.10;57.60
34698;DHT22;61391;50.922;6.928;2023-06-10T10:11:46;40.00;55.10
34698;DHT22;61391;50.922;6.928;2023-06-10T10:14:13;37.80;57.60
34698;DHT22;61391;50.922;6.928;2023-06-10T10:16:41;38.80;56.60
34698;DHT22;61391;50.922;6.928;2023-06-10T10:19:11;37.20;58.70
34698;DHT22;61391;50.922;6.928;2023-06-10T10:21:43;37.90;58.10
34698;DHT22;61391;50.922;6.928;2023-06-10T10:24:18;38.10;58.20
34698;DHT22;61391;50.922;6.928;2023-06-10T10:26:48;37.70;57.20
34698;DHT22;61391;50.922;6.928;2023-06-10T10:29:33;37.20;57.50
34698;DHT22;61391;50.922;6.928;2023-06-10T10:32:01;38.70;56.50
34698;DHT22;61391;50.922;6.928;2023-06-10T10:34:58;38.40;56.30
34698;DHT22;61391;50.922;6.928;2023-06-10T10:37:26;39.80;56.20
34698;DHT22;61391;50.922;6.928;2023-06-10T10:39:52;40.50;54.60
34698;DHT22;61391;50.922;6.928;2023-06-10T10:42:18;37.60;56.50
34698;DHT22;61391;50.922;6.928;2023-06-10T10:44:44;38.10;56.30
34698;DHT22;61391;50.922;6.928;2023-06-10T10:47:11;39.20;55.20
34698;DHT22;61391;50.922;6.928;2023-06-10T10:49:39;39.90;55.30
34698;DHT22;61391;50.922;6.928;2023-06-10T10:52:11;37.60;54.80
34698;DHT22;61391;50.922;6.928;2023-06-10T10:54:39;37.80;55.20
34698;DHT22;61391;50.922;6.928;2023-06-10T10:59:56;35.80;57.90
34698;DHT22;61391;50.922;6.928;2023-06-10T11:02:45;38.50;55.80
34698;DHT22;61391;50.922;6.928;2023-06-10T11:05:15;37.10;55.20
34698;DHT22;61391;50.922;6.928;2023-06-10T11:07:52;36.80;56.20
34698;DHT22;61391;50.922;6.928;2023-06-10T11:10:19;37.70;55.90
34698;DHT22;61391;50.922;6.928;2023-06-10T11:12:54;38.70;55.20
34698;DHT22;61391;50.922;6.928;2023-06-10T11:15:29;37.90;54.60
34698;DHT22;61391;50.922;6.928;2023-06-10T11:20:53;34.50;55.90
34698;DHT22;61391;50.922;6.928;2023-06-10T11:26:19;36.40;54.30
34698;DHT22;61391;50.922;6.928;2023-06-10T11:31:43;38.10;52.50
34698;DHT22;61391;50.922;6.928;2023-06-10T11:34:15;37.20;52.30
34698;DHT22;61391;50.922;6.928;2023-06-10T11:37:08;34.30;55.10
34698;DHT22;61391;50.922;6.928;2023-06-10T11:39:59;36.80;54.70
34698;DHT22;61391;50.922;6.928;2023-06-10T11:42:27;37.50;53.30
34698;DHT22;61391;50.922;6.928;2023-06-10T11:44:54;37.10;52.50
34698;DHT22;61391;50.922;6.928;2023-06-10T11:47:20;36.80;52.70
34698;DHT22;61391;50.922;6.928;2023-06-10T11:49:56;37.20;52.70
34698;DHT22;61391;50.922;6.928;2023-06-10T11:52:30;37.20;51.90
34698;DHT22;61391;50.922;6.928;2023-06-10T11:54:59;35.60;52.00
34698;DHT22;61391;50.922;6.928;2023-06-10T11:57:28;34.40;52.60
34698;DHT22;61391;50.922;6.928;2023-06-10T11:59:53;34.00;52.90
34698;DHT22;61391;50.922;6.928;2023-06-10T12:02:19;35.20;52.70
34698;DHT22;61391;50.922;6.928;2023-06-10T12:04:45;36.00;50.80
34698;DHT22;61391;50.922;6.928;2023-06-10T12:07:19;36.40;51.00
34698;DHT22;61391;50.922;6.928;2023-06-10T12:09:46;36.60;51.50
34698;DHT22;61391;50.922;6.928;2023-06-10T12:12:12;36.00;51.40
34698;DHT22;61391;50.922;6.928;2023-06-10T12:14:55;35.60;51.70
34698;DHT22;61391;50.922;6.928;2023-06-10T12:20:04;32.30;55.80
34698;DHT22;61391;50.922;6.928;2023-06-10T12:22:41;31.70;57.00
34698;DHT22;61391;50.922;6.928;2023-06-10T12:25:08;31.70;57.50
34698;DHT22;61391;50.922;6.928;2023-06-10T12:27:35;31.60;56.00
34698;DHT22;61391;50.922;6.928;2023-06-10T12:30:03;32.10;56.20
34698;DHT22;61391;50.922;6.928;2023-06-10T12:32:44;31.30;55.70
34698;DHT22;61391;50.922;6.928;2023-06-10T12:35:12;30.80;57.70
34698;DHT22;61391;50.922;6.928;2023-06-10T12:37:39;31.00;58.20
34698;DHT22;61391;50.922;6.928;2023-06-10T12:40:05;31.20;57.30
34698;DHT22;61391;50.922;6.928;2023-06-10T12:42:35;30.90;57.70
34698;DHT22;61391;50.922;6.928;2023-06-10T12:45:03;30.90;58.10
34698;DHT22;61391;50.922;6.928;2023-06-10T12:47:33;30.50;57.20
34698;DHT22;61391;50.922;6.928;2023-06-10T12:50:01;30.30;56.90
34698;DHT22;61391;50.922;6.928;2023-06-10T12:52:28;30.50;55.90
34698;DHT22;61391;50.922;6.928;2023-06-10T12:54:54;30.70;56.20
34698;DHT22;61391;50.922;6.928;2023-06-10T12:57:21;30.80;55.70
34698;DHT22;61391;50.922;6.928;2023-06-10T12:59:47;30.70;55.70
34698;DHT22;61391;50.922;6.928;2023-06-10T13:02:30;30.60;56.40
34698;DHT22;61391;50.922;6.928;2023-06-10T13:04:58;30.80;57.00
34698;DHT22;61391;50.922;6.928;2023-06-10T13:07:34;30.90;56.40
34698;DHT22;61391;50.922;6.928;2023-06-10T13:10:01;30.90;56.30
34698;DHT22;61391;50.922;6.928;2023-06-10T13:12:28;30.80;56.40
34698;DHT22;61391;50.922;6.928;2023-06-10T13:14:55;30.70;56.80
34698;DHT22;61391;50.922;6.928;2023-06-10T13:17:23;30.90;56.70
34698;DHT22;61391;50.922;6.928;2023-06-10T13:19:49;31.00;56.00
34698;DHT22;61391;50.922;6.928;2023-06-10T13:22:16;30.90;55.50
34698;DHT22;61391;50.922;6.928;2023-06-10T13:25:03;31.00;56.40
34698;DHT22;61391;50.922;6.928;2023-06-10T13:27:35;31.20;54.60
34698;DHT22;61391;50.922;6.928;2023-06-10T13:30:06;30.70;55.20
34698;DHT22;61391;50.922;6.928;2023-06-10T13:32:45;30.70;55.50
34698;DHT22;61391;50.922;6.928;2023-06-10T13:35:18;30.90;55.60
34698;DHT22;61391;50.922;6.928;2023-06-10T13:38:06;30.60;55.60
34698;DHT22;61391;50.922;6.928;2023-06-10T13:40:33;31.10;55.00
34698;DHT22;61391;50.922;6.928;2023-06-10T13:42:59;31.00;55.50
34698;DHT22;61391;50.922;6.928;2023-06-10T13:45:30;31.50;55.00
34698;DHT22;61391;50.922;6.928;2023-06-10T13:47:57;31.80;55.40
34698;DHT22;61391;50.922;6.928;2023-06-10T13:50:23;31.10;55.50
34698;DHT22;61391;50.922;6.928;2023-06-10T13:52:51;30.80;56.50
34698;DHT22;61391;50.922;6.928;2023-06-10T13:55:19;31.10;57.30
34698;DHT22;61391;50.922;6.928;2023-06-10T13:57:52;31.30;57.00
34698;DHT22;61391;50.922;6.928;2023-06-10T14:00:18;31.40;57.30
34698;DHT22;61391;50.922;6.928;2023-06-10T14:02:55;31.10;57.20
34698;DHT22;61391;50.922;6.928;2023-06-10T14:05:26;30.90;57.50
34698;DHT22;61391;50.922;6.928;2023-06-10T14:07:52;31.00;58.00
34698;DHT22;61391;50.922;6.928;2023-06-10T14:10:19;30.90;57.40
34698;DHT22;61391;50.922;6.928;2023-06-10T14:12:51;30.60;57.20
34698;DHT22;61391;50.922;6.928;2023-06-10T14:15:17;30.60;57.60
34698;DHT22;61391;50.922;6.928;2023-06-10T14:17:47;30.80;57.10
34698;DHT22;61391;50.922;6.928;2023-06-10T14:20:15;31.00;56.30
34698;DHT22;61391;50.922;6.928;2023-06-10T14:22:41;30.90;56.00
34698;DHT22;61391;50.922;6.928;2023-06-10T14:25:07;30.60;56.40
34698;DHT22;61391;50.922;6.928;2023-06-10T14:27:33;30.30;57.30
34698;DHT22;61391;50.922;6.928;2023-06-10T14:30:00;30.50;57.60
34698;DHT22;61391;50.922;6.928;2023-06-10T14:32:27;30.60;57.30
34698;DHT22;61391;50.922;6.928;2023-06-10T14:34:54;30.80;57.70
34698;DHT22;61391;50.922;6.928;2023-06-10T14:37:20;30.70;56.70
34698;DHT22;61391;50.922;6.928;2023-06-10T14:39:47;30.50;57.10
34698;DHT22;61391;50.922;6.928;2023-06-10T14:42:13;30.30;57.30
34698;DHT22;61391;50.922;6.928;2023-06-10T14:44:45;30.50;57.30
34698;DHT22;61391;50.922;6.928;2023-06-10T14:47:11;30.60;57.70
34698;DHT22;61391;50.922;6.928;2023-06-10T14:49:36;30.50;58.10
34698;DHT22;61391;50.922;6.928;2023-06-10T14:52:03;30.30;58.50
34698;DHT22;61391;50.922;6.928;2023-06-10T14:54:35;30.20;58.60
34698;DHT22;61391;50.922;6.928;2023-06-10T14:57:03;30.10;59.10
34698;DHT22;61391;50.922;6.928;2023-06-10T14:59:29;30.10;59.10
34698;DHT22;61391;50.922;6.928;2023-06-10T15:01:56;30.20;58.70
34698;DHT22;61391;50.922;6.928;2023-06-10T15:04:23;29.90;59.00
34698;DHT22;61391;50.922;6.928;2023-06-10T15:06:50;29.90;58.50
34698;DHT22;61391;50.922;6.928;2023-06-10T15:09:16;29.90;58.00
34698;DHT22;61391;50.922;6.928;2023-06-10T15:11:44;30.00;58.30
34698;DHT22;61391;50.922;6.928;2023-06-10T15:14:10;30.20;58.60
34698;DHT22;61391;50.922;6.928;2023-06-10T15:16:38;30.30;58.60
34698;DHT22;61391;50.922;6.928;2023-06-10T15:19:08;30.00;55.20
34698;DHT22;61391;50.922;6.928;2023-06-10T15:21:34;30.20;55.50
34698;DHT22;61391;50.922;6.928;2023-06-10T15:24:03;29.80;55.70
34698;DHT22;61391;50.922;6.928;2023-06-10T15:26:31;30.00;56.40
34698;DHT22;61391;50.922;6.928;2023-06-10T15:29:18;29.90;56.20
34698;DHT22;61391;50.922;6.928;2023-06-10T15:31:55;30.20;57.50
34698;DHT22;61391;50.922;6.928;2023-06-10T15:37:49;30.40;56.80
34698;DHT22;61391;50.922;6.928;2023-06-10T15:40:40;30.70;56.80
34698;DHT22;61391;50.922;6.928;2023-06-10T15:43:11;30.80;57.10
34698;DHT22;61391;50.922;6.928;2023-06-10T15:45:40;30.70;57.70
34698;DHT22;61391;50.922;6.928;2023-06-10T15:48:10;30.50;58.00
34698;DHT22;61391;50.922;6.928;2023-06-10T15:50:56;30.30;58.40
34698;DHT22;61391;50.922;6.928;2023-06-10T15:53:27;30.40;58.70